Time;durP1;ratioP1;P1;durP2;ratioP2;P2;SDS_P1;SDS_P2;PMS_P1;PMS_P2;Temp;Humidity;BMP_temperature;BMP_pressure;BME280_temperature;BME280_humidity;BME280_pressure;Samples;Min_cycle;Max_cycle;Signal;HPM_P1;HPM_P2
2023/01/18 00:01:01;;;;;;;79.45;28.80;;;-0.50;99.90;;;;;;6257892;22;20035;-90
2023/01/18 00:03:51;;;;;;;68.03;25.90;;;-0.50;99.90;;;;;;6257059;23;20028;-89
2023/01/18 00:06:40;;;;;;;51.63;21.35;;;-0.40;99.90;;;;;;6257526;23;20024;-91
2023/01/18 00:09:27;;;;;;;40.70;18.98;;;-0.40;99.90;;;;;;6256489;22;20028;-90
2023/01/18 00:12:17;;;;;;;37.58;20.60;;;-0.40;99.90;;;;;;6255478;22;20386;-90
2023/01/18 00:15:08;;;;;;;60.30;26.67;;;-0.30;99.90;;;;;;6250976;22;20102;-89
2023/01/18 00:17:55;;;;;;;55.65;24.00;;;-0.30;99.90;;;;;;6229348;23;20021;-91
2023/01/18 00:20:43;;;;;;;44.75;19.48;;;-0.30;99.90;;;;;;6247793;23;20086;-90
2023/01/18 00:23:30;;;;;;;38.25;17.73;;;-0.30;99.90;;;;;;6248774;23;20024;-93
2023/01/18 00:26:19;;;;;;;38.10;17.65;;;-0.40;99.90;;;;;;6248178;23;20078;-91
2023/01/18 00:29:10;;;;;;;36.70;17.75;;;-0.40;99.90;;;;;;6227063;23;20040;-89
2023/01/18 00:31:59;;;;;;;42.63;20.70;;;-0.30;99.90;;;;;;6226627;23;20028;-89
2023/01/18 00:34:48;;;;;;;49.53;21.85;;;-0.30;99.90;;;;;;6224620;23;20043;-88
2023/01/18 00:37:36;;;;;;;54.30;25.85;;;-0.40;99.90;;;;;;6247037;23;20102;-89
2023/01/18 00:40:27;;;;;;;53.88;24.52;;;-0.40;99.90;;;;;;6246766;23;20020;-91
2023/01/18 00:46:26;;;;;;;59.92;25.60;;;-0.40;99.90;;;;;;6248313;23;20120;-90
2023/01/18 00:49:13;;;;;;;64.32;26.52;;;-0.40;99.90;;;;;;6249040;22;20028;-90
2023/01/18 00:52:00;;;;;;;61.50;24.50;;;-0.40;99.90;;;;;;6226193;23;20118;-90
2023/01/18 00:54:47;;;;;;;57.08;24.08;;;-0.50;99.90;;;;;;6226031;23;20038;-90
2023/01/18 00:57:34;;;;;;;61.17;26.38;;;-0.40;99.90;;;;;;6249469;22;20107;-90
2023/01/18 01:00:25;;;;;;;62.47;27.00;;;-0.40;99.90;;;;;;6245933;23;20048;-91
2023/01/18 01:03:16;;;;;;;65.50;27.65;;;-0.40;99.90;;;;;;6249316;22;20107;-89
2023/01/18 01:09:11;;;;;;;68.82;29.77;;;-0.40;99.90;;;;;;6247883;23;20032;-90
2023/01/18 01:27:33;;;;;;;71.30;30.27;;;-0.40;99.90;;;;;;6251015;23;20457;-90
2023/01/18 01:30:20;;;;;;;75.20;30.50;;;-0.50;99.90;;;;;;6251256;23;20047;-91
2023/01/18 01:33:07;;;;;;;74.85;29.80;;;-0.50;99.90;;;;;;6249843;23;20505;-88
2023/01/18 01:36:05;;;;;;;76.32;29.92;;;-0.50;99.90;;;;;;6238085;23;20024;-92
2023/01/18 01:38:53;;;;;;;80.13;30.80;;;-0.40;99.90;;;;;;6260178;23;20024;-88
2023/01/18 01:41:41;;;;;;;78.90;30.98;;;-0.40;99.90;;;;;;6250599;23;20024;-89
2023/01/18 01:44:32;;;;;;;85.68;32.63;;;-0.40;99.90;;;;;;6251224;23;20024;-91
2023/01/18 01:47:39;;;;;;;71.18;30.25;;;-0.40;99.90;;;;;;6251649;22;20051;-90
2023/01/18 01:50:40;;;;;;;69.20;29.20;;;-0.40;99.90;;;;;;6249601;23;20034;-89
2023/01/18 01:53:27;;;;;;;76.43;28.92;;;-0.40;99.90;;;;;;6249923;23;20482;-90
2023/01/18 01:56:19;;;;;;;63.53;26.48;;;-0.40;99.90;;;;;;6248325;23;20020;-90
2023/01/18 01:59:07;;;;;;;61.92;25.58;;;-0.30;99.90;;;;;;6254330;22;20042;-91
2023/01/18 02:01:54;;;;;;;60.80;26.25;;;-0.30;99.90;;;;;;6262103;22;20103;-91
2023/01/18 02:04:44;;;;;;;52.08;22.40;;;-0.30;99.90;;;;;;6265924;22;20035;-91
2023/01/18 02:07:32;;;;;;;53.15;24.65;;;-0.30;99.90;;;;;;6257353;22;20146;-89
2023/01/18 02:10:21;;;;;;;50.30;22.55;;;-0.30;99.90;;;;;;6251746;22;20372;-92
2023/01/18 02:13:12;;;;;;;55.70;23.88;;;-0.30;99.90;;;;;;6250644;23;20392;-91
2023/01/18 02:16:34;;;;;;;53.95;24.80;;;-0.30;99.90;;;;;;6250383;23;20036;-91
2023/01/18 02:19:46;;;;;;;49.35;22.60;;;-0.30;99.90;;;;;;6240616;23;20034;-90
2023/01/18 02:23:11;;;;;;;54.67;23.23;;;-0.30;99.90;;;;;;6265106;22;20020;-89
2023/01/18 02:26:11;;;;;;;55.58;24.90;;;-0.40;99.90;;;;;;6262854;23;20047;-87
2023/01/18 02:29:27;;;;;;;52.22;24.67;;;-0.40;99.90;;;;;;6262423;23;20431;-89
2023/01/18 02:32:48;;;;;;;54.00;25.77;;;-0.40;99.90;;;;;;6271355;22;20008;-83
2023/01/18 02:35:45;;;;;;;48.33;20.77;;;-0.40;99.90;;;;;;6271043;22;20080;-87
2023/01/18 02:38:43;;;;;;;45.88;22.05;;;-0.40;99.90;;;;;;6264995;22;20024;-89
2023/01/18 02:47:56;;;;;;;46.25;21.65;;;-0.50;99.90;;;;;;6258964;23;20404;-90
2023/01/18 02:50:45;;;;;;;44.95;21.50;;;-0.50;99.90;;;;;;6250473;23;20055;-90
2023/01/18 02:53:38;;;;;;;44.33;20.52;;;-0.50;99.90;;;;;;6252009;22;20082;-90
2023/01/18 02:56:52;;;;;;;41.28;20.05;;;-0.50;99.90;;;;;;6251361;23;20396;-90
2023/01/18 02:59:53;;;;;;;47.35;20.17;;;-0.50;99.90;;;;;;6249901;23;20034;-90
2023/01/18 03:02:42;;;;;;;39.50;19.17;;;-0.60;99.90;;;;;;6248011;23;20028;-90
2023/01/18 03:05:33;;;;;;;38.72;18.58;;;-0.60;99.90;;;;;;6227595;23;20111;-90
2023/01/18 03:08:38;;;;;;;38.75;19.15;;;-0.60;99.90;;;;;;6224873;23;20053;-90
2023/01/18 03:11:32;;;;;;;48.58;22.30;;;-0.60;99.90;;;;;;6250027;22;20363;-89
2023/01/18 03:14:30;;;;;;;43.33;21.38;;;-0.60;99.90;;;;;;6247905;23;20078;-90
2023/01/18 03:17:25;;;;;;;45.53;20.25;;;-0.60;99.90;;;;;;6227436;23;20435;-90
2023/01/18 03:20:17;;;;;;;35.38;18.65;;;-0.60;99.90;;;;;;6247953;23;20020;-89
2023/01/18 03:26:19;;;;;;;35.35;16.60;;;-0.70;99.90;;;;;;6247401;23;19927;-89
2023/01/18 03:35:27;;;;;;;35.03;17.30;;;-0.70;99.90;;;;;;6248310;23;20039;-89
2023/01/18 03:38:15;;;;;;;;;;;-0.70;99.90;;;;;;6249788;22;20099;-89
2023/01/18 03:41:07;;;;;;;37.08;18.38;;;-0.70;99.90;;;;;;6247437;23;19923;-89
2023/01/18 03:43:58;;;;;;;38.25;17.73;;;-0.70;99.90;;;;;;6247910;23;20024;-91
2023/01/18 03:46:46;;;;;;;42.80;20.08;;;-0.70;99.90;;;;;;6247165;23;20054;-90
2023/01/18 03:49:34;;;;;;;34.67;17.98;;;-0.70;99.90;;;;;;6247531;23;20029;-90
2023/01/18 03:52:27;;;;;;;34.88;18.40;;;-0.70;99.90;;;;;;6246497;23;20039;-90
2023/01/18 03:55:47;;;;;;;28.75;16.40;;;-0.60;99.90;;;;;;6226516;23;20055;-90
2023/01/18 03:58:35;;;;;;;31.98;16.15;;;-0.60;99.90;;;;;;6247366;23;20082;-90
2023/01/18 04:01:24;;;;;;;28.27;15.82;;;-0.70;99.90;;;;;;6247890;23;20031;-89
2023/01/18 04:04:11;;;;;;;29.67;16.88;;;-0.70;99.90;;;;;;6258732;23;20059;-88
2023/01/18 04:06:58;;;;;;;33.25;17.33;;;-0.70;99.90;;;;;;6234728;23;20048;-88
2023/01/18 04:09:48;;;;;;;30.52;16.50;;;-0.70;99.90;;;;;;6248548;23;20055;-90
2023/01/18 04:12:38;;;;;;;29.90;16.75;;;-0.70;99.90;;;;;;6249153;22;20327;-90
2023/01/18 04:15:31;;;;;;;30.95;16.85;;;-0.70;99.90;;;;;;6247714;23;20103;-90
2023/01/18 04:18:18;;;;;;;29.65;17.52;;;-0.70;99.90;;;;;;6247579;23;20096;-91
2023/01/18 04:21:09;;;;;;;35.58;18.08;;;-0.70;99.90;;;;;;6247565;23;20020;-88
2023/01/18 04:23:58;;;;;;;36.75;18.65;;;-0.70;99.90;;;;;;6227329;23;20150;-89
2023/01/18 04:26:45;;;;;;;37.45;18.70;;;-0.70;99.90;;;;;;6256102;22;20032;-90
2023/01/18 04:29:35;;;;;;;34.65;18.15;;;-0.70;99.90;;;;;;6252826;22;20384;-89
2023/01/18 04:32:25;;;;;;;27.63;15.68;;;-0.70;99.90;;;;;;6257211;22;20023;-91
2023/01/18 04:35:12;;;;;;;27.63;15.35;;;-0.70;99.90;;;;;;6263752;23;20044;-88
2023/01/18 04:37:59;;;;;;;30.98;14.77;;;-0.70;99.90;;;;;;6256934;22;20355;-90
2023/01/18 04:40:50;;;;;;;23.55;13.55;;;-0.70;99.90;;;;;;6224613;23;20420;-89
2023/01/18 04:43:37;;;;;;;23.83;13.85;;;-0.80;99.90;;;;;;6227336;23;20044;-88
2023/01/18 04:46:27;;;;;;;27.60;13.90;;;-0.80;99.90;;;;;;6246361;23;20381;-89
2023/01/18 04:49:16;;;;;;;27.33;15.38;;;-0.80;99.90;;;;;;6248638;22;20451;-89
2023/01/18 04:52:06;;;;;;;29.17;15.23;;;-0.70;99.90;;;;;;6248532;22;20028;-90
2023/01/18 04:54:54;;;;;;;26.60;14.98;;;-0.80;99.90;;;;;;6247756;23;20038;-90
2023/01/18 04:57:42;;;;;;;29.45;16.20;;;-0.80;99.90;;;;;;6251327;23;20035;-89
2023/01/18 05:00:29;;;;;;;29.90;16.33;;;-0.70;99.90;;;;;;6225310;23;20327;-91
2023/01/18 05:03:45;;;;;;;27.27;14.77;;;-0.80;99.90;;;;;;6248872;23;20031;-91
2023/01/18 05:06:36;;;;;;;28.58;15.25;;;-0.80;99.90;;;;;;6228553;23;20050;-89
2023/01/18 05:09:23;;;;;;;24.40;14.23;;;-0.80;99.90;;;;;;6250976;22;20035;-90
2023/01/18 05:12:11;;;;;;;26.55;15.55;;;-0.80;99.90;;;;;;6248384;23;20036;-91
2023/01/18 05:14:58;;;;;;;27.50;15.50;;;-0.80;99.90;;;;;;6246929;23;20028;-89
2023/01/18 05:17:45;;;;;;;24.88;14.07;;;-0.80;99.90;;;;;;6252355;23;20088;-89
2023/01/18 05:20:33;;;;;;;22.33;13.30;;;-0.80;99.90;;;;;;6240542;22;20020;-89
2023/01/18 05:23:28;;;;;;;27.00;14.65;;;-0.80;99.90;;;;;;6258216;23;20107;-90
2023/01/18 05:26:20;;;;;;;22.65;13.00;;;-0.80;99.90;;;;;;6269509;22;20008;-85
2023/01/18 05:29:08;;;;;;;24.33;13.82;;;-0.80;99.90;;;;;;6273991;22;20047;-86
2023/01/18 05:31:57;;;;;;;17.77;12.00;;;-0.80;99.90;;;;;;6274042;22;20012;-88
2023/01/18 05:34:48;;;;;;;21.20;12.90;;;-0.80;99.90;;;;;;6272382;22;20039;-84
2023/01/18 05:37:38;;;;;;;20.85;13.30;;;-0.80;99.90;;;;;;6251582;22;20051;-84
2023/01/18 05:40:26;;;;;;;21.95;12.90;;;-0.80;99.90;;;;;;6244379;23;20012;-88
2023/01/18 05:43:15;;;;;;;22.25;12.90;;;-0.90;99.90;;;;;;6266233;22;20051;-89
2023/01/18 05:46:04;;;;;;;20.55;12.52;;;-0.90;99.90;;;;;;6237760;23;20034;-90
2023/01/18 05:48:57;;;;;;;24.40;14.13;;;-0.90;99.90;;;;;;6253491;23;20107;-89
2023/01/18 05:51:44;;;;;;;23.88;13.52;;;-0.80;99.90;;;;;;6256410;22;20024;-90
2023/01/18 05:54:36;;;;;;;25.75;13.77;;;-0.90;99.90;;;;;;6255260;22;20102;-87
2023/01/18 05:57:24;;;;;;;;;;;-0.90;99.90;;;;;;6255151;23;20077;-89
2023/01/18 06:00:11;;;;;;;20.77;12.63;;;-0.90;99.90;;;;;;6254898;23;19972;-89
2023/01/18 06:03:02;;;;;;;18.38;11.82;;;-0.90;99.90;;;;;;6252284;23;20024;-90
2023/01/18 06:05:52;;;;;;;19.88;11.38;;;-0.90;99.90;;;;;;6256210;22;20043;-89
2023/01/18 06:08:41;;;;;;;16.73;11.52;;;-0.90;99.90;;;;;;6231098;23;20031;-89
2023/01/18 06:11:28;;;;;;;18.10;11.35;;;-0.90;99.90;;;;;;6253918;22;20024;-89
2023/01/18 06:14:15;;;;;;;19.85;12.02;;;-0.90;99.90;;;;;;6250550;23;20024;-88
2023/01/18 06:17:03;;;;;;;20.42;11.68;;;-0.90;99.90;;;;;;6249729;23;20020;-88
2023/01/18 06:19:51;;;;;;;22.50;12.73;;;-0.90;99.90;;;;;;6228416;23;20313;-88
2023/01/18 06:22:39;;;;;;;17.95;10.98;;;-0.90;99.90;;;;;;6226254;23;20055;-89
2023/01/18 06:25:26;;;;;;;16.25;10.43;;;-0.90;99.90;;;;;;6251079;22;20030;-90
2023/01/18 06:28:14;;;;;;;20.70;11.85;;;-0.90;99.90;;;;;;6249106;23;20024;-89
2023/01/18 06:31:10;;;;;;;19.15;11.98;;;-0.90;99.90;;;;;;6258833;23;20090;-86
2023/01/18 06:34:07;;;;;;;19.77;12.18;;;-1.00;99.90;;;;;;6231914;23;20028;-90
2023/01/18 06:36:55;;;;;;;21.58;12.60;;;-0.90;99.90;;;;;;6254267;22;20024;-87
2023/01/18 06:39:42;;;;;;;18.33;11.20;;;-1.00;99.90;;;;;;6210969;23;20024;-89
2023/01/18 06:42:29;;;;;;;20.73;12.15;;;-1.00;99.90;;;;;;6262034;22;20020;-90
2023/01/18 06:45:20;;;;;;;18.88;12.10;;;-1.00;99.90;;;;;;6228341;22;20099;-85
2023/01/18 06:48:37;;;;;;;21.95;13.18;;;-1.00;99.90;;;;;;6248554;22;20032;-85
2023/01/18 06:51:27;;;;;;;22.45;13.35;;;-1.00;99.90;;;;;;6209328;23;20804;-85
2023/01/18 06:54:20;;;;;;;26.60;13.70;;;-1.00;99.90;;;;;;6246051;23;20074;-86
2023/01/18 06:57:11;;;;;;;25.50;15.45;;;-1.00;99.90;;;;;;6226371;23;20108;-88
2023/01/18 07:00:04;;;;;;;30.48;14.70;;;-1.00;99.90;;;;;;6249226;22;20040;-87
2023/01/18 07:02:52;;;;;;;30.17;16.45;;;-1.00;99.90;;;;;;6250813;22;20024;-89
2023/01/18 07:05:45;;;;;;;28.60;15.27;;;-1.00;99.90;;;;;;6246749;23;20031;-88
2023/01/18 07:08:33;;;;;;;28.27;16.63;;;-1.00;99.90;;;;;;6225960;23;20020;-88
2023/01/18 07:11:24;;;;;;;29.52;16.27;;;-1.10;99.90;;;;;;6248843;23;20024;-86
2023/01/18 07:14:14;;;;;;;33.35;16.45;;;-1.00;99.90;;;;;;6248020;23;20074;-88
2023/01/18 07:17:04;;;;;;;29.88;15.63;;;-1.10;99.90;;;;;;6256451;23;20162;-89
2023/01/18 07:19:52;;;;;;;32.45;17.58;;;-1.10;99.90;;;;;;6260056;23;20024;-88
2023/01/18 07:22:40;;;;;;;33.30;19.35;;;-1.00;99.90;;;;;;6230906;23;20058;-87
2023/01/18 07:25:28;;;;;;;30.88;16.80;;;-1.00;99.90;;;;;;6249383;23;20024;-89
2023/01/18 07:28:17;;;;;;;31.05;18.63;;;-1.00;99.90;;;;;;6250083;22;20050;-88
2023/01/18 07:31:06;;;;;;;30.90;18.60;;;-1.10;99.90;;;;;;6247480;23;20058;-91
2023/01/18 07:33:56;;;;;;;30.15;16.88;;;-1.00;99.90;;;;;;6228412;23;20024;-88
2023/01/18 07:36:43;;;;;;;27.20;15.50;;;-1.00;99.90;;;;;;6205293;23;20039;-89
2023/01/18 07:39:30;;;;;;;30.55;16.23;;;-1.00;99.90;;;;;;6247621;23;20032;-87
2023/01/18 07:42:19;;;;;;;27.48;15.13;;;-1.00;99.90;;;;;;6249758;22;20024;-88
2023/01/18 07:45:08;;;;;;;26.05;15.15;;;-1.00;99.90;;;;;;6225846;23;20028;-88
2023/01/18 07:47:57;;;;;;;28.40;14.90;;;-1.00;99.90;;;;;;6225682;23;20051;-91
2023/01/18 07:51:17;;;;;;;26.90;15.18;;;-1.00;99.90;;;;;;6247877;23;20034;-89
2023/01/18 07:54:04;;;;;;;22.10;12.98;;;-0.90;99.90;;;;;;6249111;22;20032;-90
2023/01/18 07:57:20;;;;;;;20.80;12.25;;;-0.90;99.90;;;;;;6232404;23;20016;-88
2023/01/18 08:00:27;;;;;;;22.30;13.30;;;-0.90;99.90;;;;;;6247432;23;20064;-88
2023/01/18 08:03:22;;;;;;;24.25;12.23;;;-0.80;99.90;;;;;;6250795;22;20056;-89
2023/01/18 08:06:23;;;;;;;20.25;12.18;;;-0.80;99.90;;;;;;6248958;23;20095;-87
2023/01/18 08:09:13;;;;;;;20.73;11.27;;;-0.70;99.90;;;;;;6248729;23;20046;-85
2023/01/18 08:12:06;;;;;;;19.70;11.13;;;-0.70;99.90;;;;;;6249804;22;20016;-89
2023/01/18 08:15:03;;;;;;;17.05;9.73;;;-0.60;99.90;;;;;;6228627;23;20032;-87
2023/01/18 08:17:50;;;;;;;19.63;10.82;;;-0.60;99.90;;;;;;6227998;23;20020;-86
2023/01/18 08:20:43;;;;;;;20.92;10.43;;;-0.50;99.90;;;;;;6226381;23;20427;-88
2023/01/18 08:23:30;;;;;;;14.60;10.43;;;-0.50;99.90;;;;;;6248909;23;20047;-85
2023/01/18 08:26:18;;;;;;;14.57;9.38;;;-0.40;99.90;;;;;;6248929;23;20486;-86
2023/01/18 08:29:05;;;;;;;12.73;9.35;;;-0.30;99.90;;;;;;6225894;23;20031;-87
2023/01/18 08:31:55;;;;;;;15.43;9.73;;;-0.30;99.90;;;;;;6250942;23;20416;-87
2023/01/18 08:34:42;;;;;;;17.95;9.80;;;-0.20;99.90;;;;;;6229720;23;20356;-89
2023/01/18 08:37:30;;;;;;;16.20;9.68;;;-0.20;48.20;;;;;;6251736;23;20107;-89
2023/01/18 08:40:18;;;;;;;13.13;8.35;;;-0.30;1.00;;;;;;6254745;23;20024;-86
2023/01/18 08:43:07;;;;;;;14.10;9.65;;;-0.30;1.00;;;;;;6230402;23;20070;-87
2023/01/18 08:45:55;;;;;;;16.90;9.07;;;-0.20;99.90;;;;;;6228964;23;20024;-88
2023/01/18 08:48:47;;;;;;;16.10;9.20;;;-0.30;99.90;;;;;;6252379;23;20499;-87
2023/01/18 08:51:34;;;;;;;11.88;8.35;;;-0.20;99.90;;;;;;6254735;23;20024;-88
2023/01/18 08:54:26;;;;;;;20.45;8.52;;;-0.10;1.00;;;;;;6254613;23;20107;-88
2023/01/18 08:57:15;;;;;;;14.07;8.60;;;0.10;99.90;;;;;;6244294;23;20046;-87
2023/01/18 09:00:03;;;;;;;12.98;7.70;;;0.20;1.00;;;;;;6258084;23;20024;-88
2023/01/18 09:02:51;;;;;;;12.85;7.85;;;0.20;99.90;;;;;;6243219;23;20012;-88
2023/01/18 09:05:39;;;;;;;17.05;7.40;;;0.20;99.90;;;;;;6257431;23;20028;-87
2023/01/18 09:08:27;;;;;;;10.50;7.55;;;0.20;99.90;;;;;;6255887;23;20062;-89
2023/01/18 09:11:15;;;;;;;11.48;7.40;;;0.20;99.90;;;;;;6235876;23;20403;-88
2023/01/18 09:14:04;;;;;;;11.07;7.57;;;0.10;15.00;;;;;;6250693;23;20094;-88
2023/01/18 09:16:55;;;;;;;11.88;7.22;;;0.10;1.00;;;;;;6251005;23;20027;-88
2023/01/18 09:19:42;;;;;;;12.40;8.32;;;0.10;99.90;;;;;;6227173;23;20396;-85
2023/01/18 09:22:31;;;;;;;12.13;7.15;;;0.10;99.90;;;;;;6249325;23;20086;-88
2023/01/18 09:25:20;;;;;;;10.13;7.25;;;0.00;1.00;;;;;;6248525;23;20028;-88
2023/01/18 09:28:08;;;;;;;11.27;7.45;;;0.10;1.00;;;;;;6249667;23;20462;-86
2023/01/18 09:31:02;;;;;;;12.00;7.00;;;0.20;99.90;;;;;;6250656;23;20114;-88
2023/01/18 09:34:05;;;;;;;11.77;6.72;;;0.10;19.80;;;;;;6228839;23;20118;-87
2023/01/18 09:37:05;;;;;;;11.15;5.97;;;0.40;1.00;;;;;;6252534;23;20331;-90
2023/01/18 09:39:59;;;;;;;7.82;6.05;;;0.60;99.90;;;;;;6227201;23;20035;-91
2023/01/18 09:42:50;;;;;;;8.20;5.65;;;1.00;99.90;;;;;;6248862;23;20024;-89
2023/01/18 09:45:43;;;;;;;7.88;5.72;;;1.20;60.60;;;;;;6248546;23;20028;-88
2023/01/18 09:48:34;;;;;;;;;;;1.40;1.00;;;;;;6250631;23;20028;-89
2023/01/18 09:51:29;;;;;;;7.20;5.20;;;1.60;99.90;;;;;;6248037;23;19919;-89
2023/01/18 09:54:46;;;;;;;9.02;5.45;;;1.60;99.90;;;;;;6229486;23;20074;-89
2023/01/18 09:57:51;;;;;;;10.82;4.85;;;1.60;1.00;;;;;;6251201;23;20096;-89
2023/01/18 10:00:44;;;;;;;7.10;4.47;;;1.60;99.90;;;;;;6228770;23;20082;-89
2023/01/18 10:03:45;;;;;;;8.38;4.78;;;1.50;99.90;;;;;;6250840;23;20020;-89
2023/01/18 10:06:58;;;;;;;10.70;5.45;;;1.50;99.90;;;;;;6249779;23;20028;-90
2023/01/18 10:09:57;;;;;;;6.80;6.00;;;1.30;99.90;;;;;;6248497;23;20024;-90
2023/01/18 10:13:04;;;;;;;10.45;6.30;;;1.10;99.90;;;;;;6249483;23;20113;-90
2023/01/18 10:15:51;;;;;;;11.20;5.72;;;0.90;72.00;;;;;;6248776;23;20430;-89
2023/01/18 10:18:44;;;;;;;12.60;7.00;;;0.80;63.40;;;;;;6226075;23;20031;-88
2023/01/18 10:22:13;;;;;;;11.68;7.00;;;0.80;91.50;;;;;;6247172;23;20026;-89
2023/01/18 10:25:06;;;;;;;13.30;7.85;;;1.00;99.90;;;;;;6248320;23;20078;-88
2023/01/18 10:28:23;;;;;;;15.35;9.40;;;0.90;99.90;;;;;;6249542;23;20055;-88
2023/01/18 10:31:33;;;;;;;18.85;8.63;;;0.90;99.90;;;;;;6249237;23;20309;-88
2023/01/18 10:34:31;;;;;;;10.45;6.68;;;1.10;99.90;;;;;;6248078;23;20031;-87
2023/01/18 10:37:44;;;;;;;12.20;7.40;;;1.20;99.90;;;;;;6248483;23;20038;-87
2023/01/18 10:40:36;;;;;;;10.98;7.57;;;1.10;98.50;;;;;;6247935;23;20114;-85
2023/01/18 10:43:25;;;;;;;11.05;7.70;;;1.10;55.50;;;;;;6248256;23;20032;-86
2023/01/18 10:46:15;;;;;;;12.85;8.05;;;1.10;39.40;;;;;;6248021;23;20125;-87
2023/01/18 10:49:03;;;;;;;11.77;7.35;;;1.30;44.70;;;;;;6246376;23;20020;-87
2023/01/18 10:51:50;;;;;;;10.75;6.90;;;1.30;9.90;;;;;;6249114;23;20028;-87
2023/01/18 10:54:47;;;;;;;15.23;8.10;;;1.20;1.00;;;;;;6252341;23;20048;-87
2023/01/18 10:57:56;;;;;;;10.15;7.65;;;1.20;1.00;;;;;;6231943;23;20024;-88
2023/01/18 11:00:53;;;;;;;11.93;7.05;;;1.20;1.00;;;;;;6254016;23;20024;-87
2023/01/18 11:03:54;;;;;;;16.10;8.48;;;1.10;1.00;;;;;;6252616;23;20028;-87
2023/01/18 11:06:58;;;;;;;12.88;7.38;;;0.70;1.00;;;;;;6250918;23;20024;-88
2023/01/18 11:09:55;;;;;;;8.82;6.28;;;0.80;1.00;;;;;;6247165;23;20039;-86
2023/01/18 11:12:46;;;;;;;10.93;6.13;;;0.80;1.00;;;;;;6226198;23;20253;-88
2023/01/18 11:15:34;;;;;;;13.52;8.05;;;0.90;1.00;;;;;;6226851;23;20031;-86
2023/01/18 11:18:24;;;;;;;12.02;7.88;;;0.90;1.00;;;;;;6248119;23;20028;-87
2023/01/18 11:21:16;;;;;;;11.40;6.82;;;1.00;1.00;;;;;;6226215;23;20101;-88
2023/01/18 11:24:11;;;;;;;8.87;5.77;;;1.00;1.00;;;;;;6247456;23;20292;-88
2023/01/18 11:27:03;;;;;;;11.70;7.20;;;1.00;1.00;;;;;;6248934;23;20102;-89
2023/01/18 11:29:50;;;;;;;10.77;6.35;;;1.20;1.00;;;;;;6229422;23;20030;-88
2023/01/18 11:32:40;;;;;;;10.45;6.20;;;1.20;1.00;;;;;;6247670;23;20097;-87
2023/01/18 11:35:36;;;;;;;10.55;6.60;;;1.20;1.00;;;;;;6245517;23;20038;-86
2023/01/18 11:38:32;;;;;;;9.45;6.05;;;1.20;1.00;;;;;;6248923;23;20032;-86
2023/01/18 11:41:23;;;;;;;9.20;5.78;;;1.20;1.00;;;;;;6249602;23;20324;-85
2023/01/18 11:44:43;;;;;;;10.60;6.13;;;1.20;1.00;;;;;;6228371;23;20343;-87
2023/01/18 11:47:42;;;;;;;8.85;5.60;;;1.20;1.00;;;;;;6233472;23;20097;-87
2023/01/18 11:50:51;;;;;;;12.57;5.90;;;1.20;1.00;;;;;;6256843;23;20050;-89
2023/01/18 11:54:05;;;;;;;11.05;5.82;;;1.30;1.00;;;;;;6261478;23;20020;-90
2023/01/18 11:56:58;;;;;;;9.48;5.90;;;1.40;1.00;;;;;;6249071;23;20028;-89
2023/01/18 11:59:47;;;;;;;7.22;5.03;;;1.40;99.90;;;;;;6268837;23;20024;-90
2023/01/18 12:03:00;;;;;;;6.53;4.50;;;1.30;99.90;;;;;;6271441;22;20012;-86
2023/01/18 12:06:03;;;;;;;10.88;6.68;;;1.20;99.90;;;;;;6271052;22;20068;-85
2023/01/18 12:09:15;;;;;;;12.43;5.15;;;1.00;99.90;;;;;;6263558;23;20032;-90
2023/01/18 12:12:32;;;;;;;9.43;5.05;;;0.80;99.90;;;;;;6264755;23;20019;-88
2023/01/18 12:15:56;;;;;;;10.75;5.45;;;0.80;99.90;;;;;;6263353;23;20054;-89
2023/01/18 12:19:32;;;;;;;12.00;6.53;;;0.90;99.90;;;;;;6253034;23;20104;-89
2023/01/18 12:22:47;;;;;;;8.30;5.40;;;0.90;99.90;;;;;;6244927;23;20024;-90
2023/01/18 12:25:44;;;;;;;11.25;5.60;;;0.90;99.90;;;;;;6249822;23;20024;-88
2023/01/18 12:28:37;;;;;;;11.48;5.00;;;0.90;99.90;;;;;;6228989;23;20028;-87
2023/01/18 12:31:43;;;;;;;9.52;4.60;;;0.90;99.90;;;;;;6248989;23;20027;-89
2023/01/18 12:34:40;;;;;;;7.70;4.75;;;0.90;99.90;;;;;;6248265;23;20024;-88
2023/01/18 12:37:52;;;;;;;8.63;5.13;;;0.80;99.90;;;;;;6248896;23;20455;-88
2023/01/18 12:41:00;;;;;;;10.77;5.15;;;0.80;99.90;;;;;;6227364;23;20027;-87
2023/01/18 12:44:27;;;;;;;12.70;5.55;;;0.70;99.90;;;;;;6248564;23;20096;-88
2023/01/18 12:47:38;;;;;;;8.80;5.47;;;0.90;99.90;;;;;;6249705;23;20028;-88
2023/01/18 12:50:32;;;;;;;8.05;4.88;;;1.10;99.90;;;;;;6226429;23;20024;-89
2023/01/18 12:53:26;;;;;;;10.73;5.85;;;1.10;99.90;;;;;;6228401;23;20038;-88
2023/01/18 12:56:24;;;;;;;11.18;5.75;;;1.00;99.90;;;;;;6249427;23;20035;-89
2023/01/18 12:59:41;;;;;;;7.28;4.10;;;1.00;99.90;;;;;;6253851;23;20024;-89
2023/01/18 13:02:46;;;;;;;9.75;5.00;;;1.10;99.90;;;;;;6261095;23;20071;-88
2023/01/18 13:05:49;;;;;;;14.13;5.70;;;1.00;99.90;;;;;;6262382;23;20035;-86
2023/01/18 13:08:40;;;;;;;7.63;5.13;;;0.90;99.90;;;;;;6260764;23;20020;-86
2023/01/18 13:11:37;;;;;;;15.55;5.28;;;0.80;99.90;;;;;;6262760;23;20207;-87
2023/01/18 13:14:37;;;;;;;9.77;5.45;;;0.80;99.90;;;;;;6262694;23;20042;-86
2023/01/18 13:17:29;;;;;;;11.18;5.57;;;0.80;99.90;;;;;;6238998;23;20032;-90
2023/01/18 13:20:22;;;;;;;15.98;6.13;;;0.90;99.90;;;;;;6239081;23;20084;-87
2023/01/18 13:23:36;;;;;;;10.25;4.63;;;0.90;99.90;;;;;;6243669;23;20055;-88
2023/01/18 13:26:33;;;;;;;11.90;5.78;;;0.80;99.90;;;;;;6242899;23;20024;-88
2023/01/18 13:29:29;;;;;;;12.57;5.88;;;0.80;99.90;;;;;;6267747;23;20016;-88
2023/01/18 13:32:34;;;;;;;6.10;3.88;;;0.90;99.90;;;;;;6247200;22;20023;-86
2023/01/18 13:35:32;;;;;;;10.82;4.88;;;0.80;99.90;;;;;;6248861;23;20039;-87
2023/01/18 13:38:24;;;;;;;10.35;4.43;;;0.80;99.90;;;;;;6244935;23;20080;-88
2023/01/18 13:41:33;;;;;;;12.15;4.38;;;0.70;99.90;;;;;;6267401;23;20024;-86
2023/01/18 13:44:44;;;;;;;17.50;4.88;;;0.60;99.90;;;;;;6270356;23;20020;-86
2023/01/18 13:47:38;;;;;;;10.07;5.18;;;0.50;99.90;;;;;;6248409;23;20020;-86
2023/01/18 13:50:31;;;;;;;12.07;5.68;;;0.40;99.90;;;;;;6250043;23;20018;-85
2023/01/18 13:53:21;;;;;;;7.90;4.00;;;0.40;99.90;;;;;;6241435;23;20072;-85
2023/01/18 13:56:21;;;;;;;8.32;4.82;;;0.40;99.90;;;;;;6267608;23;20134;-87
2023/01/18 13:59:23;;;;;;;7.60;3.92;;;0.30;99.90;;;;;;6263247;23;20046;-87
2023/01/18 14:02:40;;;;;;;10.98;4.75;;;0.40;99.90;;;;;;6264766;23;20020;-88
2023/01/18 14:05:42;;;;;;;11.52;5.25;;;0.40;99.90;;;;;;6263056;23;20024;-90
2023/01/18 14:08:33;;;;;;;11.15;5.30;;;0.50;99.90;;;;;;6265118;23;20024;-90
2023/01/18 14:11:44;;;;;;;8.35;4.80;;;0.50;99.90;;;;;;6263002;23;20036;-88
2023/01/18 14:14:49;;;;;;;12.25;4.03;;;0.40;99.90;;;;;;6241907;23;20130;-90
2023/01/18 14:17:43;;;;;;;15.23;6.57;;;0.40;99.90;;;;;;6261545;23;20416;-89
2023/01/18 14:20:50;;;;;;;10.40;5.80;;;0.40;99.90;;;;;;6237160;23;20109;-89
2023/01/18 14:23:53;;;;;;;11.25;6.60;;;0.50;99.90;;;;;;6251454;23;20078;-88
2023/01/18 14:26:43;;;;;;;8.38;5.47;;;0.50;99.90;;;;;;6250703;23;20039;-87
2023/01/18 14:29:32;;;;;;;7.97;4.72;;;0.40;99.90;;;;;;6230123;23;20347;-87
2023/01/18 14:32:41;;;;;;;9.05;5.40;;;0.30;99.90;;;;;;6260768;23;20039;-89
2023/01/18 14:35:33;;;;;;;10.57;5.45;;;0.30;99.90;;;;;;6253167;23;20023;-89
2023/01/18 14:38:23;;;;;;;19.10;6.95;;;0.30;99.90;;;;;;6253108;23;20024;-87
2023/01/18 14:41:16;;;;;;;11.10;5.68;;;0.30;99.90;;;;;;6252784;23;20024;-88
2023/01/18 14:44:04;;;;;;;18.00;7.47;;;0.30;99.90;;;;;;6252388;23;20020;-89
2023/01/18 14:46:58;;;;;;;15.02;4.63;;;0.30;99.90;;;;;;6227821;23;20020;-90
2023/01/18 14:49:49;;;;;;;10.88;5.38;;;0.30;99.90;;;;;;6228771;23;20324;-88
2023/01/18 14:52:37;;;;;;;11.30;6.13;;;0.30;99.90;;;;;;6227212;23;20424;-87
2023/01/18 14:55:31;;;;;;;11.73;5.78;;;0.30;99.90;;;;;;6246861;23;20031;-88
2023/01/18 14:58:18;;;;;;;8.40;4.38;;;0.30;99.90;;;;;;6250451;23;20339;-89
2023/01/18 15:01:07;;;;;;;9.90;5.63;;;0.30;99.90;;;;;;6247872;23;20032;-88
2023/01/18 15:03:58;;;;;;;9.10;4.28;;;0.30;99.90;;;;;;6226915;23;20032;-88
2023/01/18 15:06:54;;;;;;;7.38;4.18;;;0.30;99.90;;;;;;6248633;23;20443;-89
2023/01/18 15:09:45;;;;;;;5.85;3.50;;;0.30;99.90;;;;;;6249601;23;20081;-88
2023/01/18 15:12:34;;;;;;;7.38;4.50;;;0.30;99.90;;;;;;6206791;23;20326;-88
2023/01/18 15:15:42;;;;;;;7.30;4.10;;;0.30;99.90;;;;;;6226497;23;20032;-88
2023/01/18 15:18:33;;;;;;;10.98;4.53;;;0.30;99.90;;;;;;6228507;23;20026;-87
2023/01/18 15:21:25;;;;;;;7.47;3.92;;;0.30;99.90;;;;;;6247923;23;20031;-88
2023/01/18 15:24:21;;;;;;;9.35;4.35;;;0.30;99.90;;;;;;6249971;23;20024;-91
2023/01/18 15:27:15;;;;;;;9.82;5.05;;;0.20;99.90;;;;;;6247151;23;20024;-89
2023/01/18 15:30:11;;;;;;;5.57;4.10;;;0.10;99.90;;;;;;6249620;23;20127;-90
2023/01/18 15:33:02;;;;;;;6.65;4.22;;;0.10;99.90;;;;;;6249207;23;20028;-89
2023/01/18 15:35:56;;;;;;;9.75;5.40;;;0.00;99.90;;;;;;6250317;23;20028;-90
2023/01/18 15:38:50;;;;;;;8.57;5.57;;;0.00;99.90;;;;;;6248977;23;20356;-90